Time;durP1;ratioP1;P1;durP2;ratioP2;P2;SDS_P1;SDS_P2;PMS_P1;PMS_P2;Temp;Humidity;BMP_temperature;BMP_pressure;BME280_temperature;BME280_humidity;BME280_pressure;Samples;Min_cycle;Max_cycle;Signal;HPM_P1;HPM_P2
2021/06/13 00:00:17;;;;;;;;;;;;;;;22.53;62.81;100826.53;5031857;28;19913;-78
2021/06/13 00:03:02;;;;;;;;;;;;;;;22.48;62.96;100833.25;5044336;28;20376;-80
2021/06/13 00:05:46;;;;;;;;;;;;;;;22.38;63.31;100831.25;5065630;28;19913;-80
2021/06/13 00:08:31;;;;;;;;;;;;;;;22.42;62.97;100831.25;5064745;28;19913;-79
2021/06/13 00:11:16;;;;;;;;;;;;;;;22.31;63.09;100822.91;5043828;28;19916;-79
2021/06/13 00:14:00;;;;;;;;;;;;;;;21.97;64.18;100821.63;5057615;28;19916;-78
2021/06/13 00:16:45;;;;;;;;;;;;;;;21.94;64.54;100816.88;5044773;28;19912;-78
2021/06/13 00:19:30;;;;;;;;;;;;;;;21.95;64.38;100824.78;5057543;28;19913;-78
2021/06/13 00:22:14;;;;;;;;;;;;;;;22.00;64.26;100818.88;5061613;28;19912;-78
2021/06/13 00:24:59;;;;;;;;;;;;;;;22.06;63.81;100805.44;5043034;28;19913;-77
2021/06/13 00:27:43;;;;;;;;;;;;;;;22.09;63.50;100811.00;5057659;28;19912;-77
2021/06/13 00:30:27;;;;;;;;;;;;;;;22.33;62.69;100808.69;5040013;28;19913;-76
2021/06/13 00:33:11;;;;;;;;;;;;;;;22.26;63.43;100814.19;5042443;28;19913;-76
2021/06/13 00:35:56;;;;;;;;;;;;;;;22.26;64.04;100809.44;5056699;28;20392;-78
2021/06/13 00:38:41;;;;;;;;;;;;;;;22.13;63.74;100813.78;5039344;28;19921;-78
2021/06/13 00:41:26;;;;;;;;;;;;;;;21.79;65.13;100807.66;5044133;28;19920;-78
2021/06/13 00:44:11;;;;;;;;;;;;;;;21.59;65.39;100800.84;5055566;28;20376;-76
2021/06/13 00:46:56;;;;;;;;;;;;;;;21.53;65.36;100800.44;5054389;28;19913;-77
2021/06/13 00:49:41;;;;;;;;;;;;;;;21.56;65.55;100787.78;5058833;28;19916;-78
2021/06/13 00:52:26;;;;;;;;;;;;;;;21.44;66.31;100793.66;5027502;28;19912;-77
2021/06/13 00:55:15;;;;;;;;;;;;;;;21.25;66.92;100786.44;5053958;28;19916;-77
2021/06/13 00:58:00;;;;;;;;;;;;;;;21.52;66.52;100781.47;5038506;28;20389;-76
2021/06/13 01:00:45;;;;;;;;;;;;;;;21.65;66.33;100779.94;5041115;28;19912;-77
2021/06/13 01:03:30;;;;;;;;;;;;;;;21.74;65.88;100783.91;5025682;28;19917;-77
2021/06/13 01:06:20;;;;;;;;;;;;;;;21.71;65.81;100778.38;5028876;28;19912;-76
2021/06/13 01:09:09;;;;;;;;;;;;;;;21.65;66.45;100782.69;5041118;28;19912;-76
2021/06/13 01:12:02;;;;;;;;;;;;;;;21.36;67.29;100783.72;5025573;28;20373;-76
2021/06/13 01:14:51;;;;;;;;;;;;;;;21.10;67.73;100777.22;5037801;28;19921;-75
2021/06/13 01:17:45;;;;;;;;;;;;;;;21.21;66.87;100769.81;5041071;28;19913;-78
2021/06/13 01:20:56;;;;;;;;;;;;;;;21.29;67.13;100770.66;5043834;28;19912;-77
2021/06/13 01:23:49;;;;;;;;;;;;;;;21.35;66.47;100763.56;5038929;28;20297;-76
2021/06/13 01:26:52;;;;;;;;;;;;;;;21.30;66.58;100763.94;5053219;28;19913;-76
2021/06/13 01:29:47;;;;;;;;;;;;;;;21.31;66.65;100758.03;5041806;28;20361;-76
2021/06/13 01:32:33;;;;;;;;;;;;;;;21.29;66.84;100752.06;5054502;28;19913;-76
2021/06/13 01:35:21;;;;;;;;;;;;;;;21.22;67.36;100752.06;5057122;28;19916;-76
2021/06/13 01:38:08;;;;;;;;;;;;;;;21.07;69.77;100761.41;5041255;28;19912;-77
2021/06/13 01:40:53;;;;;;;;;;;;;;;21.28;68.64;100756.03;5039190;28;20381;-78
2021/06/13 01:43:40;;;;;;;;;;;;;;;21.20;68.51;100759.13;5041324;28;19913;-77
2021/06/13 01:46:26;;;;;;;;;;;;;;;20.42;71.18;100755.72;5040803;28;19913;-77
2021/06/13 01:49:11;;;;;;;;;;;;;;;20.68;69.91;100757.53;5025129;28;20377;-78
2021/06/13 01:51:58;;;;;;;;;;;;;;;20.78;69.73;100746.56;5042600;28;20308;-78
2021/06/13 01:54:45;;;;;;;;;;;;;;;20.76;69.97;100751.72;5037441;28;19917;-78
2021/06/13 01:57:31;;;;;;;;;;;;;;;20.69;69.97;100745.31;5038326;28;19913;-78
2021/06/13 02:00:52;;;;;;;;;;;;;;;21.02;68.69;100741.63;4993857;28;19913;-78
2021/06/13 02:03:42;;;;;;;;;;;;;;;20.99;68.59;100736.84;5024280;28;20389;-78
2021/06/13 02:06:44;;;;;;;;;;;;;;;20.90;69.23;100734.44;5042035;28;19913;-77
2021/06/13 02:09:30;;;;;;;;;;;;;;;20.76;69.58;100726.03;5037685;28;20325;-78
2021/06/13 02:12:19;;;;;;;;;;;;;;;20.63;69.96;100725.53;5023963;28;20357;-77
2021/06/13 02:15:17;;;;;;;;;;;;;;;20.41;71.30;100737.59;5040175;28;19917;-77
2021/06/13 02:18:04;;;;;;;;;;;;;;;20.58;70.37;100742.47;5054470;28;20376;-77
2021/06/13 02:20:49;;;;;;;;;;;;;;;20.91;68.02;100749.84;5052776;28;20289;-76
2021/06/13 02:23:35;;;;;;;;;;;;;;;20.80;68.80;100738.69;5055463;28;19917;-78
2021/06/13 02:26:21;;;;;;;;;;;;;;;20.76;68.80;100734.31;5025809;28;19913;-78
2021/06/13 02:29:08;;;;;;;;;;;;;;;20.89;68.03;100730.06;5052146;28;20340;-77
2021/06/13 02:31:54;;;;;;;;;;;;;;;20.70;69.00;100736.66;5041279;28;19912;-78
2021/06/13 02:34:38;;;;;;;;;;;;;;;20.56;68.91;100739.31;5035861;28;19917;-77
2021/06/13 02:37:29;;;;;;;;;;;;;;;20.71;67.72;100734.69;5023219;28;19916;-78
2021/06/13 02:40:14;;;;;;;;;;;;;;;20.58;68.58;100741.66;5026725;28;20377;-77
2021/06/13 02:43:00;;;;;;;;;;;;;;;20.34;69.82;100743.84;5024751;28;20328;-77
2021/06/13 02:45:49;;;;;;;;;;;;;;;20.28;70.01;100753.63;5023238;28;19921;-77
2021/06/13 02:48:33;;;;;;;;;;;;;;;20.14;69.78;100752.69;5055956;28;20288;-77
2021/06/13 02:51:20;;;;;;;;;;;;;;;20.36;69.12;100749.00;5039149;28;19913;-76
2021/06/13 02:54:08;;;;;;;;;;;;;;;20.37;69.39;100739.50;5051080;28;20292;-77
2021/06/13 02:56:55;;;;;;;;;;;;;;;20.53;68.54;100742.81;5055666;28;19913;-77
2021/06/13 02:59:59;;;;;;;;;;;;;;;20.41;69.12;100749.44;5038747;28;20160;-77
2021/06/13 03:02:46;;;;;;;;;;;;;;;20.36;68.28;100755.31;5029685;28;20304;-78
2021/06/13 03:05:32;;;;;;;;;;;;;;;20.38;68.03;100764.00;5041465;28;19913;-79
2021/06/13 03:08:19;;;;;;;;;;;;;;;20.19;69.54;100761.41;5039239;28;19912;-77
2021/06/13 03:11:06;;;;;;;;;;;;;;;20.06;69.83;100758.13;5059218;28;19912;-77
2021/06/13 03:13:51;;;;;;;;;;;;;;;20.12;69.48;100755.81;5055418;28;19913;-78
2021/06/13 03:16:36;;;;;;;;;;;;;;;20.20;69.51;100756.69;5025646;28;19913;-78
2021/06/13 03:19:21;;;;;;;;;;;;;;;20.23;69.26;100751.19;5043342;28;19913;-78
2021/06/13 03:22:07;;;;;;;;;;;;;;;20.13;69.99;100760.16;5037403;28;19912;-78
2021/06/13 03:24:55;;;;;;;;;;;;;;;20.24;69.24;100761.06;5025359;28;19912;-78
2021/06/13 03:27:41;;;;;;;;;;;;;;;20.19;69.44;100761.41;5042317;28;19912;-77
2021/06/13 03:30:30;;;;;;;;;;;;;;;20.21;69.34;100753.56;5041120;28;19913;-77
2021/06/13 03:33:19;;;;;;;;;;;;;;;20.27;69.14;100751.22;5023959;28;19912;-77
2021/06/13 03:36:05;;;;;;;;;;;;;;;20.31;68.95;100755.66;5028175;28;20296;-78
2021/06/13 03:38:52;;;;;;;;;;;;;;;20.34;69.03;100763.19;5054475;28;20288;-77
2021/06/13 03:41:38;;;;;;;;;;;;;;;20.23;69.59;100758.69;5037780;28;20316;-76
2021/06/13 03:44:22;;;;;;;;;;;;;;;20.11;68.88;100759.75;5037772;28;19913;-76
2021/06/13 03:47:07;;;;;;;;;;;;;;;20.13;69.61;100762.94;5059158;28;20285;-76
2021/06/13 03:49:52;;;;;;;;;;;;;;;20.34;69.36;100757.66;5057242;28;19913;-77
2021/06/13 03:52:38;;;;;;;;;;;;;;;20.35;69.27;100752.94;5046244;28;20108;-77
2021/06/13 03:55:22;;;;;;;;;;;;;;;20.45;68.80;100761.31;5058456;28;19920;-79
2021/06/13 03:58:11;;;;;;;;;;;;;;;20.61;68.19;100768.56;5036791;28;19912;-79
2021/06/13 04:00:56;;;;;;;;;;;;;;;20.62;67.64;100764.63;5061543;28;19912;-81
2021/06/13 04:03:46;;;;;;;;;;;;;;;20.71;67.22;100770.63;5043801;28;20127;-78
2021/06/13 04:06:31;;;;;;;;;;;;;;;20.77;67.53;100774.63;5041508;28;19913;-77
2021/06/13 04:09:17;;;;;;;;;;;;;;;20.74;67.40;100781.69;5060545;28;20229;-77
2021/06/13 04:12:02;;;;;;;;;;;;;;;20.88;67.40;100781.00;5043488;28;20293;-77
2021/06/13 04:14:47;;;;;;;;;;;;;;;20.93;65.92;100781.44;5039220;28;19917;-77
2021/06/13 04:17:32;;;;;;;;;;;;;;;20.84;66.73;100796.78;5054566;28;19917;-78
2021/06/13 04:20:19;;;;;;;;;;;;;;;20.87;66.95;100794.06;5043432;28;20317;-78
2021/06/13 04:23:04;;;;;;;;;;;;;;;20.90;66.64;100796.03;5056322;28;19912;-79
2021/06/13 04:25:48;;;;;;;;;;;;;;;20.98;66.68;100785.06;5038836;28;19916;-79
2021/06/13 04:28:34;;;;;;;;;;;;;;;21.10;66.20;100793.03;5042974;28;20304;-77
2021/06/13 04:31:19;;;;;;;;;;;;;;;20.66;67.80;100802.16;5055746;28;19912;-79
2021/06/13 04:34:03;;;;;;;;;;;;;;;20.53;68.67;100809.13;5059841;28;19917;-78
2021/06/13 04:36:47;;;;;;;;;;;;;;;20.68;68.65;100812.81;5058561;28;19912;-79
2021/06/13 04:39:32;;;;;;;;;;;;;;;20.73;68.26;100815.22;5039121;28;19923;-78
2021/06/13 04:42:17;;;;;;;;;;;;;;;20.80;68.06;100820.84;5054357;28;19916;-80
2021/06/13 04:45:06;;;;;;;;;;;;;;;20.70;68.87;100819.56;5057160;28;19913;-77
2021/06/13 04:47:51;;;;;;;;;;;;;;;20.73;68.42;100818.78;5056347;28;19912;-77
2021/06/13 04:50:38;;;;;;;;;;;;;;;20.78;68.38;100820.41;5053585;28;19913;-77
2021/06/13 04:53:47;;;;;;;;;;;;;;;21.13;67.10;100826.22;5056656;28;19913;-77
2021/06/13 04:56:33;;;;;;;;;;;;;;;21.24;66.88;100834.63;5052714;28;20288;-77
2021/06/13 04:59:17;;;;;;;;;;;;;;;21.47;66.24;100832.44;5047041;28;19917;-78
2021/06/13 05:02:02;;;;;;;;;;;;;;;21.78;65.25;100847.63;5046613;28;20396;-80
2021/06/13 05:04:47;;;;;;;;;;;;;;;22.04;63.90;100841.06;5038282;28;19913;-76
2021/06/13 05:07:32;;;;;;;;;;;;;;;22.35;62.85;100836.81;5054060;28;19916;-78
2021/06/13 05:10:18;;;;;;;;;;;;;;;22.48;61.94;100844.34;5057045;28;19916;-76
2021/06/13 05:13:12;;;;;;;;;;;;;;;22.53;62.03;100848.72;5040845;28;19913;-77
2021/06/13 05:15:56;;;;;;;;;;;;;;;22.59;61.93;100852.69;5052570;28;19917;-77
2021/06/13 05:18:41;;;;;;;;;;;;;;;22.63;61.69;100850.72;5052784;28;20285;-76
2021/06/13 05:21:26;;;;;;;;;;;;;;;22.69;61.66;100843.59;5055578;28;19913;-76
2021/06/13 05:24:10;;;;;;;;;;;;;;;22.72;61.61;100850.34;5055272;28;20460;-75
2021/06/13 05:26:55;;;;;;;;;;;;;;;22.74;61.68;100854.31;5058809;28;19912;-75
2021/06/13 05:29:39;;;;;;;;;;;;;;;22.77;61.48;100859.06;5056857;28;19913;-76
2021/06/13 05:32:24;;;;;;;;;;;;;;;22.81;61.33;100851.53;5054117;28;19912;-76
2021/06/13 05:35:09;;;;;;;;;;;;;;;22.83;61.54;100853.94;5058409;28;19917;-77
2021/06/13 05:37:54;;;;;;;;;;;;;;;22.86;61.27;100842.03;5052075;28;19913;-77
2021/06/13 05:40:40;;;;;;;;;;;;;;;22.90;61.17;100849.19;5045014;28;19912;-77
2021/06/13 05:43:24;;;;;;;;;;;;;;;22.95;60.92;100850.78;5038078;28;19913;-77
2021/06/13 05:46:09;;;;;;;;;;;;;;;22.96;61.20;100858.69;5036366;28;19913;-77
2021/06/13 05:48:53;;;;;;;;;;;;;;;22.98;61.00;100859.09;5022379;28;20377;-77
2021/06/13 05:51:38;;;;;;;;;;;;;;;23.01;60.70;100863.84;5058670;28;19913;-75
2021/06/13 05:54:23;;;;;;;;;;;;;;;23.05;60.59;100863.06;5053771;28;20401;-76
2021/06/13 05:57:07;;;;;;;;;;;;;;;23.07;60.57;100863.44;5039418;28;19912;-77
2021/06/13 05:59:51;;;;;;;;;;;;;;;23.12;60.85;100860.28;5058659;28;19912;-78
2021/06/13 06:02:36;;;;;;;;;;;;;;;23.10;60.72;100863.47;5040913;28;19912;-78
2021/06/13 06:05:21;;;;;;;;;;;;;;;23.16;60.55;100861.84;5040140;28;20377;-78
2021/06/13 06:08:06;;;;;;;;;;;;;;;23.14;60.34;100866.22;5044761;28;19916;-78
2021/06/13 06:10:50;;;;;;;;;;;;;;;23.18;60.69;100864.25;5056897;28;19912;-76
2021/06/13 06:13:35;;;;;;;;;;;;;;;23.19;60.33;100871.38;5040260;28;19912;-78
2021/06/13 06:16:23;;;;;;;;;;;;;;;23.29;60.04;100873.34;5039174;28;19921;-77
2021/06/13 06:19:11;;;;;;;;;;;;;;;23.25;59.93;100870.59;5041946;28;19913;-79
2021/06/13 06:21:56;;;;;;;;;;;;;;;23.27;60.13;100872.94;5040832;28;19913;-78
2021/06/13 06:24:42;;;;;;;;;;;;;;;23.30;59.75;100877.72;5054686;28;19916;-79
2021/06/13 06:27:26;;;;;;;;;;;;;;;23.47;59.73;100885.25;5057500;28;19912;-76
2021/06/13 06:30:13;;;;;;;;;;;;;;;23.47;59.53;100888.03;5055959;28;19913;-78
2021/06/13 06:32:57;;;;;;;;;;;;;;;23.52;59.03;100887.63;5061453;28;19917;-78
2021/06/13 06:35:42;;;;;;;;;;;;;;;23.54;59.08;100888.03;5042118;28;19917;-79
2021/06/13 06:38:27;;;;;;;;;;;;;;;23.51;59.17;100888.84;5040676;28;19913;-77
2021/06/13 06:41:12;;;;;;;;;;;;;;;23.67;58.61;100888.41;5021601;28;20285;-79
2021/06/13 06:43:57;;;;;;;;;;;;;;;23.74;58.41;100891.16;5022550;28;19917;-77
2021/06/13 06:46:42;;;;;;;;;;;;;;;23.84;57.91;100891.13;5024551;28;19913;-78
2021/06/13 06:49:31;;;;;;;;;;;;;;;23.75;58.21;100893.53;5022132;28;19913;-78
2021/06/13 06:52:16;;;;;;;;;;;;;;;23.75;58.21;100890.75;5025874;28;19913;-78
2021/06/13 06:55:02;;;;;;;;;;;;;;;23.98;57.56;100893.06;5037787;28;19917;-78
2021/06/13 06:57:48;;;;;;;;;;;;;;;24.18;56.28;100891.44;5022325;28;20452;-77
2021/06/13 07:00:33;;;;;;;;;;;;;;;24.52;55.43;100890.88;5026943;28;19917;-78
2021/06/13 07:03:18;;;;;;;;;;;;;;;24.52;55.42;100894.47;5023625;28;20385;-76
2021/06/13 07:06:02;;;;;;;;;;;;;;;24.53;55.22;100896.03;5021316;28;19913;-77
2021/06/13 07:08:47;;;;;;;;;;;;;;;24.55;55.03;100901.97;5023157;28;19912;-76
2021/06/13 07:11:32;;;;;;;;;;;;;;;24.75;54.40;100901.47;5021715;28;20349;-77
2021/06/13 07:14:16;;;;;;;;;;;;;;;24.47;55.36;100899.66;5029839;28;19912;-77
2021/06/13 07:17:01;;;;;;;;;;;;;;;24.76;54.16;100906.63;5060222;28;19917;-78
2021/06/13 07:19:46;;;;;;;;;;;;;;;24.96;53.41;100909.69;5053122;28;20292;-78
2021/06/13 07:22:31;;;;;;;;;;;;;;;24.92;54.04;100897.81;5062730;28;19916;-76
2021/06/13 07:25:16;;;;;;;;;;;;;;;25.10;53.37;100909.59;5083331;28;19913;-77
2021/06/13 07:28:00;;;;;;;;;;;;;;;25.39;52.72;100910.97;5065550;28;19912;-77
2021/06/13 07:30:44;;;;;;;;;;;;;;;25.41;52.16;100905.75;5037473;28;19916;-76
2021/06/13 07:33:29;;;;;;;;;;;;;;;25.33;52.42;100907.03;5041985;28;19913;-78
2021/06/13 07:36:14;;;;;;;;;;;;;;;25.32;53.15;100911.00;5034801;28;19921;-78
2021/06/13 07:38:58;;;;;;;;;;;;;;;25.47;52.13;100901.31;5056619;28;19913;-78
2021/06/13 07:41:43;;;;;;;;;;;;;;;25.60;52.78;100906.41;5061424;28;20155;-79
2021/06/13 07:44:28;;;;;;;;;;;;;;;25.92;50.51;100910.44;5023650;28;19970;-77
2021/06/13 07:47:12;;;;;;;;;;;;;;;25.95;51.06;100912.41;5043628;28;20377;-77
2021/06/13 07:49:58;;;;;;;;;;;;;;;26.25;50.74;100905.31;5042053;28;19917;-76
2021/06/13 07:52:44;;;;;;;;;;;;;;;26.22;49.71;100908.91;5059902;28;20381;-78
2021/06/13 07:55:29;;;;;;;;;;;;;;;25.74;51.06;100909.06;5066077;28;20389;-77
2021/06/13 07:58:14;;;;;;;;;;;;;;;25.50;51.54;100899.69;5049546;28;19916;-77
2021/06/13 08:00:58;;;;;;;;;;;;;;;25.74;51.67;100900.69;5069082;28;19912;-77
2021/06/13 08:03:42;;;;;;;;;;;;;;;25.75;51.78;100905.06;5062207;28;19912;-76
2021/06/13 08:06:27;;;;;;;;;;;;;;;26.45;50.90;100894.31;5053121;28;20369;-76
2021/06/13 08:09:11;;;;;;;;;;;;;;;27.12;49.67;100901.69;5037640;28;20380;-77
2021/06/13 08:11:56;;;;;;;;;;;;;;;27.52;48.64;100892.25;5042009;28;20312;-77
2021/06/13 08:14:43;;;;;;;;;;;;;;;27.63;47.73;100889.25;5045533;28;19912;-78
2021/06/13 08:17:27;;;;;;;;;;;;;;;28.37;47.53;100896.16;5036701;28;19913;-78
2021/06/13 08:20:12;;;;;;;;;;;;;;;30.36;40.92;100905.94;5032237;28;20385;-80
2021/06/13 08:22:57;;;;;;;;;;;;;;;31.85;37.58;100898.25;5040898;28;19912;-80
2021/06/13 08:25:42;;;;;;;;;;;;;;;31.07;38.76;100888.94;5065925;28;19913;-80
2021/06/13 08:28:27;;;;;;;;;;;;;;;33.31;35.08;100890.56;5056683;28;19913;-83
2021/06/13 08:31:11;;;;;;;;;;;;;;;30.45;40.65;100889.22;5054286;28;20304;-81
2021/06/13 08:33:56;;;;;;;;;;;;;;;29.33;42.34;100888.34;5040620;28;19917;-80
2021/06/13 08:36:41;;;;;;;;;;;;;;;29.10;42.52;100889.31;5056148;28;19920;-79
2021/06/13 08:39:26;;;;;;;;;;;;;;;28.33;44.65;100886.28;5048938;28;19912;-80
2021/06/13 08:42:11;;;;;;;;;;;;;;;28.10;45.16;100887.13;5064669;28;19912;-80
2021/06/13 08:44:56;;;;;;;;;;;;;;;28.28;44.95;100879.19;5051050;28;19912;-80
2021/06/13 08:47:41;;;;;;;;;;;;;;;28.25;44.75;100879.25;5060953;28;19913;-80
2021/06/13 08:50:27;;;;;;;;;;;;;;;28.09;45.65;100879.94;5072508;28;19920;-79
2021/06/13 08:53:12;;;;;;;;;;;;;;;28.15;45.06;100883.06;5030064;28;19912;-80
2021/06/13 08:55:57;;;;;;;;;;;;;;;28.15;45.40;100877.47;5032378;28;19921;-80
2021/06/13 08:58:42;;;;;;;;;;;;;;;28.16;45.17;100879.03;5039487;28;19936;-80
2021/06/13 09:01:27;;;;;;;;;;;;;;;28.43;43.85;100874.84;5038283;28;19917;-82
2021/06/13 09:04:12;;;;;;;;;;;;;;;28.20;44.28;100877.75;5031802;28;19913;-83
2021/06/13 09:06:56;;;;;;;;;;;;;;;28.65;44.55;100877.94;5039842;28;19913;-85
2021/06/13 09:09:41;;;;;;;;;;;;;;;28.69;45.69;100880.69;5047287;28;19916;-85
2021/06/13 09:12:32;;;;;;;;;;;;;;;28.63;44.42;100886.00;5049730;28;19912;-84
2021/06/13 09:15:17;;;;;;;;;;;;;;;28.89;43.63;100884.22;5044866;28;19916;-81
2021/06/13 09:18:02;;;;;;;;;;;;;;;28.52;44.75;100877.06;5054412;28;19917;-85
2021/06/13 09:20:47;;;;;;;;;;;;;;;28.43;46.00;100883.25;5035493;28;19912;-80
2021/06/13 09:23:33;;;;;;;;;;;;;;;30.66;40.58;100882.19;5043561;28;19913;-83
2021/06/13 09:26:19;;;;;;;;;;;;;;;35.62;30.81;100889.72;5078369;28;19917;-79
2021/06/13 09:29:04;;;;;;;;;;;;;;;36.48;29.62;100891.56;5039796;28;19921;-81
2021/06/13 09:32:02;;;;;;;;;;;;;;;39.16;25.48;100899.78;5033262;28;20292;-81
2021/06/13 09:35:06;;;;;;;;;;;;;;;38.72;25.52;100894.56;5065200;28;19917;-81
2021/06/13 09:38:03;;;;;;;;;;;;;;;41.24;21.88;100897.47;5042840;28;20286;-84
2021/06/13 09:40:51;;;;;;;;;;;;;;;39.31;24.95;100908.94;5054060;28;19916;-80
2021/06/13 09:43:37;;;;;;;;;;;;;;;40.73;22.60;100898.88;5055764;28;19916;-82
2021/06/13 09:46:23;;;;;;;;;;;;;;;38.69;25.09;100897.66;5028768;28;19913;-79
2021/06/13 09:49:12;;;;;;;;;;;;;;;39.38;23.93;100901.97;5054567;28;19913;-77
2021/06/13 09:52:05;;;;;;;;;;;;;;;38.65;25.04;100897.91;5030515;28;19920;-80
2021/06/13 09:55:08;;;;;;;;;;;;;;;41.71;20.79;100901.13;5050907;28;19912;-77
2021/06/13 09:58:06;;;;;;;;;;;;;;;41.81;21.45;100898.75;5046932;28;19921;-81
2021/06/13 10:00:50;;;;;;;;;;;;;;;41.23;21.50;100903.69;5028628;28;19913;-81
2021/06/13 10:03:37;;;;;;;;;;;;;;;35.30;30.35;100880.09;5045903;28;19913;-78
2021/06/13 10:06:21;;;;;;;;;;;;;;;33.39;34.43;100872.09;5052359;28;20289;-79
2021/06/13 10:09:07;;;;;;;;;;;;;;;31.88;36.31;100871.25;5038731;28;19917;-79
2021/06/13 10:12:05;;;;;;;;;;;;;;;29.97;40.18;100867.78;5039017;28;20393;-80
2021/06/13 10:14:51;;;;;;;;;;;;;;;30.00;39.58;100866.13;5030422;28;19913;-79
2021/06/13 10:17:36;;;;;;;;;;;;;;;29.85;41.20;100862.91;5038089;28;19916;-80
2021/06/13 10:20:24;;;;;;;;;;;;;;;29.62;42.00;100863.94;5057962;28;19912;-80
2021/06/13 10:23:09;;;;;;;;;;;;;;;29.96;41.42;100863.44;5054847;28;19912;-79
2021/06/13 10:25:53;;;;;;;;;;;;;;;29.89;42.70;100863.63;5053992;28;19913;-79
2021/06/13 10:28:39;;;;;;;;;;;;;;;30.23;40.47;100860.22;5057643;28;20289;-79
2021/06/13 10:31:23;;;;;;;;;;;;;;;30.34;39.21;100859.88;5056212;28;19912;-78
2021/06/13 10:34:08;;;;;;;;;;;;;;;30.27;40.12;100860.13;5038935;28;19913;-78
2021/06/13 10:36:54;;;;;;;;;;;;;;;29.74;41.03;100863.22;5042804;28;19916;-78
2021/06/13 10:39:39;;;;;;;;;;;;;;;29.65;41.82;100857.47;5055879;28;19912;-79
2021/06/13 10:42:25;;;;;;;;;;;;;;;30.00;40.10;100858.50;5038841;28;20296;-79
2021/06/13 10:45:11;;;;;;;;;;;;;;;29.60;39.19;100855.19;5057236;28;19912;-78
2021/06/13 10:48:03;;;;;;;;;;;;;;;29.59;40.99;100858.44;5040338;28;19912;-77
2021/06/13 10:50:47;;;;;;;;;;;;;;;29.53;40.90;100846.97;5038231;28;19913;-77
2021/06/13 10:53:32;;;;;;;;;;;;;;;29.38;41.22;100845.78;5040538;28;19912;-77
2021/06/13 10:56:25;;;;;;;;;;;;;;;29.79;38.59;100847.06;5040057;28;19924;-77
2021/06/13 10:59:15;;;;;;;;;;;;;;;30.22;36.69;100847.44;5038277;28;19913;-79
2021/06/13 11:02:04;;;;;;;;;;;;;;;30.43;37.73;100841.16;5054576;28;19913;-79
2021/06/13 11:04:50;;;;;;;;;;;;;;;30.29;36.99;100840.81;5051894;28;19912;-79
2021/06/13 11:07:39;;;;;;;;;;;;;;;28.88;41.62;100835.03;5038005;28;20300;-80
2021/06/13 11:10:28;;;;;;;;;;;;;;;29.26;40.51;100832.47;5052135;28;19916;-77
2021/06/13 11:13:21;;;;;;;;;;;;;;;29.54;39.96;100837.34;5039567;28;19913;-79
2021/06/13 11:16:11;;;;;;;;;;;;;;;30.16;38.32;100833.19;5052219;28;19917;-77
2021/06/13 11:19:16;;;;;;;;;;;;;;;30.28;37.52;100830.81;5039363;28;19913;-78
2021/06/13 11:22:16;;;;;;;;;;;;;;;30.50;37.48;100826.94;5049083;28;19912;-78
2021/06/13 11:25:01;;;;;;;;;;;;;;;29.43;40.13;100816.44;5055586;28;19916;-78
2021/06/13 11:28:04;;;;;;;;;;;;;;;29.48;40.32;100827.09;5060478;28;19912;-78
2021/06/13 11:30:53;;;;;;;;;;;;;;;30.04;40.45;100833.13;5057640;28;19916;-79
2021/06/13 11:33:40;;;;;;;;;;;;;;;30.22;39.29;100821.41;5073057;28;19916;-78
2021/06/13 11:36:29;;;;;;;;;;;;;;;29.59;41.11;100819.97;5058877;28;19921;-78
2021/06/13 11:39:16;;;;;;;;;;;;;;;30.08;40.04;100819.78;5043301;28;19912;-78
2021/06/13 11:42:08;;;;;;;;;;;;;;;30.06;40.29;100830.69;5076150;28;19912;-77
2021/06/13 11:44:53;;;;;;;;;;;;;;;29.98;41.11;100826.50;5058194;28;19912;-77
2021/06/13 11:47:39;;;;;;;;;;;;;;;28.55;45.15;100817.41;5070979;28;19912;-78
2021/06/13 11:50:34;;;;;;;;;;;;;;;29.02;44.30;100823.47;5070647;28;19912;-78
2021/06/13 11:53:18;;;;;;;;;;;;;;;29.68;41.41;100825.72;5072396;28;19913;-79
2021/06/13 11:56:03;;;;;;;;;;;;;;;28.59;45.34;100820.94;5071114;28;19916;-77
2021/06/13 11:58:57;;;;;;;;;;;;;;;29.68;43.99;100824.94;5060248;28;20300;-79
2021/06/13 12:01:45;;;;;;;;;;;;;;;30.23;41.09;100815.31;5073457;28;19912;-79
2021/06/13 12:04:29;;;;;;;;;;;;;;;28.73;43.96;100808.63;5055075;28;19913;-79
2021/06/13 12:07:16;;;;;;;;;;;;;;;27.98;46.13;100806.69;5063119;28;19916;-79
2021/06/13 12:10:01;;;;;;;;;;;;;;;28.30;45.25;100800.41;5080534;28;19913;-79
2021/06/13 12:12:46;;;;;;;;;;;;;;;27.74;47.23;100802.41;5062437;28;19912;-80
2021/06/13 12:15:31;;;;;;;;;;;;;;;27.34;48.43;100801.56;5066313;28;19912;-79
2021/06/13 12:18:15;;;;;;;;;;;;;;;26.94;48.71;100792.31;5063655;28;19912;-80
2021/06/13 12:21:02;;;;;;;;;;;;;;;26.91;48.95;100799.56;5061747;28;19912;-81
2021/06/13 12:23:52;;;;;;;;;;;;;;;28.29;45.63;100796.81;5063009;28;19912;-79
2021/06/13 12:29:41;;;;;;;;;;;;;;;28.27;45.47;100792.91;5081156;28;20299;-81
2021/06/13 12:32:26;;;;;;;;;;;;;;;28.53;44.82;100791.88;5077943;28;19912;-78
2021/06/13 12:35:14;;;;;;;;;;;;;;;28.10;45.48;100775.25;5060938;28;19912;-81
2021/06/13 12:38:01;;;;;;;;;;;;;;;27.38;46.71;100777.94;5079182;28;19924;-76
2021/06/13 12:40:47;;;;;;;;;;;;;;;27.69;46.37;100788.94;5077963;28;19912;-78
2021/06/13 12:43:33;;;;;;;;;;;;;;;27.38;47.24;100779.97;5061294;28;19916;-80
2021/06/13 12:46:18;;;;;;;;;;;;;;;28.40;42.21;100775.00;5064365;28;19913;-79
2021/06/13 12:49:03;;;;;;;;;;;;;;;28.12;45.45;100772.06;5062881;28;19912;-80
2021/06/13 12:51:47;;;;;;;;;;;;;;;28.05;45.02;100775.78;5060235;28;20373;-78
2021/06/13 12:54:32;;;;;;;;;;;;;;;27.18;47.37;100777.13;5074364;28;20296;-81
2021/06/13 12:57:18;;;;;;;;;;;;;;;27.42;47.10;100772.28;5048624;28;19916;-81
2021/06/13 13:00:03;;;;;;;;;;;;;;;27.17;47.19;100775.56;5074907;28;19912;-81
2021/06/13 13:03:09;;;;;;;;;;;;;;;27.50;45.68;100776.53;5067013;28;19920;-79
2021/06/13 13:06:02;;;;;;;;;;;;;;;27.24;47.27;100772.63;5035493;28;20135;-78
2021/06/13 13:08:48;;;;;;;;;;;;;;;27.41;45.14;100768.72;5032613;28;20401;-77
2021/06/13 13:11:36;;;;;;;;;;;;;;;27.82;43.81;100770.31;5036869;28;20124;-77
2021/06/13 13:14:20;;;;;;;;;;;;;;;28.09;44.68;100763.28;5019613;28;19913;-78
2021/06/13 13:17:05;;;;;;;;;;;;;;;27.79;44.52;100762.75;5021003;28;19924;-77
2021/06/13 13:19:49;;;;;;;;;;;;;;;27.90;44.86;100766.13;5043675;28;19916;-80
2021/06/13 13:22:41;;;;;;;;;;;;;;;28.13;43.83;100765.25;5039401;28;19913;-79
2021/06/13 13:25:25;;;;;;;;;;;;;;;28.54;40.79;100764.69;5042923;28;19913;-77
2021/06/13 13:28:28;;;;;;;;;;;;;;;28.77;41.82;100761.72;5056575;28;19912;-81
2021/06/13 13:31:17;;;;;;;;;;;;;;;28.74;41.70;100766.22;5038930;28;20463;-78
2021/06/13 13:34:03;;;;;;;;;;;;;;;28.80;41.73;100767.22;5054605;28;19913;-77
2021/06/13 13:36:48;;;;;;;;;;;;;;;28.81;41.36;100762.41;5040266;28;19916;-79
2021/06/13 13:39:33;;;;;;;;;;;;;;;28.96;40.66;100766.44;5039080;28;19912;-80
2021/06/13 13:42:20;;;;;;;;;;;;;;;27.99;43.03;100753.13;5058157;28;19913;-81
2021/06/13 13:45:21;;;;;;;;;;;;;;;28.74;41.51;100760.59;5040039;28;19917;-80
2021/06/13 13:48:06;;;;;;;;;;;;;;;28.23;43.50;100753.03;5052958;28;19913;-81
2021/06/13 13:50:52;;;;;;;;;;;;;;;29.28;41.36;100759.97;5041996;28;19913;-78
2021/06/13 13:53:38;;;;;;;;;;;;;;;29.90;39.05;100758.63;5039922;28;19913;-78
2021/06/13 13:56:24;;;;;;;;;;;;;;;30.09;38.61;100760.44;5052645;28;19917;-78
2021/06/13 13:59:08;;;;;;;;;;;;;;;29.99;38.70;100753.13;5057122;28;19916;-79
2021/06/13 14:01:55;;;;;;;;;;;;;;;30.20;37.59;100748.88;5039440;28;19912;-78
2021/06/13 14:04:39;;;;;;;;;;;;;;;30.09;38.03;100756.84;5051911;28;19913;-77
2021/06/13 14:07:24;;;;;;;;;;;;;;;30.13;38.83;100754.72;5041491;28;19913;-79
2021/06/13 14:10:08;;;;;;;;;;;;;;;30.27;39.64;100748.66;5039546;28;19913;-80
2021/06/13 14:12:53;;;;;;;;;;;;;;;30.46;37.77;100753.28;5037790;28;19913;-78
2021/06/13 14:15:38;;;;;;;;;;;;;;;30.32;38.45;100756.53;5056065;28;19920;-80
2021/06/13 14:18:23;;;;;;;;;;;;;;;30.12;38.74;100753.16;5040337;28;19913;-79